Time;durP1;ratioP1;P1;durP2;ratioP2;P2;SDS_P1;SDS_P2;PMS_P1;PMS_P2;Temp;Humidity;BMP_temperature;BMP_pressure;BME280_temperature;BME280_humidity;BME280_pressure;Samples;Min_cycle;Max_cycle;Signal;HPM_P1;HPM_P2
2023/06/30 00:01:14;;;;;;;0.00;0.00;;;14.20;84.20;;;;;;5010915;28;20041;-67
2023/06/30 00:03:39;;;;;;;0.00;0.00;;;14.20;84.30;;;;;;5025103;28;20051;-67
2023/06/30 00:06:05;;;;;;;0.00;0.00;;;14.20;84.20;;;;;;5017095;28;20061;-66
2023/06/30 00:08:32;;;;;;;0.00;0.00;;;14.30;84.20;;;;;;5020711;28;20048;-66
2023/06/30 00:10:58;;;;;;;0.00;0.00;;;14.30;84.30;;;;;;5029525;28;20050;-66
2023/06/30 00:13:23;;;;;;;0.00;0.00;;;14.30;84.40;;;;;;5027978;28;20049;-66
2023/06/30 00:15:49;;;;;;;0.00;0.00;;;14.30;84.20;;;;;;5029050;28;20037;-65
2023/06/30 00:18:15;;;;;;;0.00;0.00;;;14.30;84.30;;;;;;5022955;28;20048;-66
2023/06/30 00:20:40;;;;;;;0.00;0.00;;;14.40;84.30;;;;;;5029345;28;20414;-66
2023/06/30 00:23:09;;;;;;;0.00;0.00;;;14.40;84.30;;;;;;5028554;28;20042;-66
2023/06/30 00:25:35;;;;;;;0.00;0.00;;;14.30;84.00;;;;;;5021547;28;20061;-66
2023/06/30 00:28:00;;;;;;;0.00;0.00;;;14.30;84.10;;;;;;5029305;28;20095;-65
2023/06/30 00:30:26;;;;;;;0.00;0.00;;;14.30;84.00;;;;;;5028530;28;20037;-66
2023/06/30 00:32:51;;;;;;;0.00;0.00;;;14.20;83.80;;;;;;5029351;28;20490;-66
2023/06/30 00:35:17;;;;;;;0.00;0.00;;;14.20;84.00;;;;;;5028669;28;20916;-66
2023/06/30 00:37:42;;;;;;;0.00;0.00;;;14.20;84.00;;;;;;5029062;28;20443;-66
2023/06/30 00:40:08;;;;;;;0.00;0.00;;;14.10;83.90;;;;;;5027058;28;20041;-65
2023/06/30 00:42:34;;;;;;;0.08;0.08;;;14.10;84.10;;;;;;5024102;28;20073;-66
2023/06/30 00:45:00;;;;;;;0.00;0.00;;;14.10;84.10;;;;;;5029007;28;20096;-66
2023/06/30 00:47:26;;;;;;;0.00;0.00;;;14.00;84.10;;;;;;5026800;28;20046;-66
2023/06/30 00:49:52;;;;;;;0.00;0.00;;;14.10;84.20;;;;;;5028408;28;20084;-66
2023/06/30 00:52:18;;;;;;;0.00;0.00;;;14.00;84.20;;;;;;5028471;28;21242;-67
2023/06/30 00:54:43;;;;;;;0.00;0.00;;;13.90;84.20;;;;;;5027729;28;20075;-67
2023/06/30 00:57:09;;;;;;;0.00;0.00;;;13.90;84.10;;;;;;5021365;28;20048;-67
2023/06/30 00:59:34;;;;;;;0.00;0.00;;;13.90;84.10;;;;;;5023393;28;20650;-66
2023/06/30 01:02:05;;;;;;;0.00;0.00;;;13.90;83.90;;;;;;5024298;28;20487;-66
2023/06/30 01:04:46;;;;;;;0.00;0.00;;;13.90;84.10;;;;;;5021774;28;20042;-67
2023/06/30 01:07:33;;;;;;;0.00;0.00;;;13.80;84.20;;;;;;5014793;28;20062;-66
2023/06/30 01:10:13;;;;;;;0.00;0.00;;;13.80;84.20;;;;;;5018497;28;20037;-66
2023/06/30 01:12:40;;;;;;;0.00;0.00;;;13.90;84.30;;;;;;5028413;28;20049;-67
2023/06/30 01:15:07;;;;;;;0.00;0.00;;;13.90;84.20;;;;;;5028637;28;20239;-67
2023/06/30 01:17:34;;;;;;;0.00;0.00;;;13.90;84.30;;;;;;5019636;28;20042;-66
2023/06/30 01:20:00;;;;;;;0.00;0.00;;;14.00;84.30;;;;;;5016779;28;20406;-66
2023/06/30 01:22:33;;;;;;;0.00;0.00;;;13.90;84.30;;;;;;5018088;28;20037;-67
2023/06/30 01:25:03;;;;;;;0.00;0.00;;;13.90;84.30;;;;;;5017510;28;20481;-66
2023/06/30 01:27:30;;;;;;;0.00;0.00;;;13.90;83.80;;;;;;5027018;28;20498;-67
2023/06/30 01:29:55;;;;;;;0.45;0.45;;;13.80;84.00;;;;;;5022834;28;20045;-67
2023/06/30 01:32:21;;;;;;;0.00;0.00;;;13.80;84.20;;;;;;5027846;28;20437;-67
2023/06/30 01:34:48;;;;;;;0.00;0.00;;;13.80;84.20;;;;;;5028588;28;20049;-67
2023/06/30 01:37:14;;;;;;;0.22;0.22;;;13.90;84.20;;;;;;5027565;28;20075;-67
2023/06/30 01:39:40;;;;;;;0.00;0.00;;;13.90;84.20;;;;;;5028360;28;20034;-66
2023/06/30 01:42:07;;;;;;;0.00;0.00;;;13.80;84.20;;;;;;5027360;28;20139;-67
2023/06/30 01:44:34;;;;;;;0.00;0.00;;;13.90;84.20;;;;;;5027849;28;20124;-67
2023/06/30 01:47:00;;;;;;;0.00;0.00;;;13.80;84.10;;;;;;5027011;28;20042;-67
2023/06/30 01:49:27;;;;;;;0.00;0.00;;;13.90;84.00;;;;;;5020439;28;20550;-67
2023/06/30 01:51:53;;;;;;;0.00;0.00;;;13.80;84.00;;;;;;5031604;28;20053;-67
2023/06/30 01:54:18;;;;;;;0.00;0.00;;;13.70;84.10;;;;;;5021255;28;20042;-67
2023/06/30 01:56:48;;;;;;;0.00;0.00;;;13.70;84.10;;;;;;5015468;28;20609;-67
2023/06/30 01:59:14;;;;;;;0.00;0.00;;;13.60;84.20;;;;;;5014907;28;20461;-67
2023/06/30 02:01:40;;;;;;;0.00;0.00;;;13.70;84.20;;;;;;5024729;28;20084;-67
2023/06/30 02:04:05;;;;;;;0.10;0.10;;;13.60;84.30;;;;;;5022368;28;20045;-66
2023/06/30 02:06:31;;;;;;;0.00;0.00;;;13.70;84.30;;;;;;5026513;28;20081;-67
2023/06/30 02:08:57;;;;;;;0.00;0.00;;;13.60;84.30;;;;;;5017091;28;20045;-67
2023/06/30 02:11:22;;;;;;;0.00;0.00;;;13.60;84.40;;;;;;5024471;28;20052;-67
2023/06/30 02:13:48;;;;;;;0.00;0.00;;;13.60;84.50;;;;;;5031665;28;20049;-67
2023/06/30 02:16:13;;;;;;;0.00;0.00;;;13.60;84.50;;;;;;5024889;28;20091;-67
2023/06/30 02:18:39;;;;;;;0.00;0.00;;;13.60;84.60;;;;;;5031722;28;20045;-67
2023/06/30 02:21:05;;;;;;;0.00;0.00;;;13.60;84.60;;;;;;5029928;28;20072;-67
2023/06/30 02:23:31;;;;;;;0.00;0.00;;;13.70;84.70;;;;;;5031204;28;20084;-67
2023/06/30 02:25:57;;;;;;;0.00;0.00;;;13.70;84.70;;;;;;5031095;28;20068;-67
2023/06/30 02:28:23;;;;;;;0.00;0.00;;;13.70;84.80;;;;;;5012990;28;20100;-67
2023/06/30 02:30:48;;;;;;;0.00;0.00;;;13.70;84.70;;;;;;5030839;28;20045;-67
2023/06/30 02:33:14;;;;;;;0.00;0.00;;;13.70;84.70;;;;;;5031222;28;20048;-67
2023/06/30 02:35:39;;;;;;;0.00;0.00;;;13.70;84.80;;;;;;5030865;28;20072;-67
2023/06/30 02:38:06;;;;;;;0.00;0.00;;;13.70;84.80;;;;;;5030820;28;20088;-67
2023/06/30 02:40:32;;;;;;;0.00;0.00;;;13.70;84.80;;;;;;5030876;28;20124;-67
2023/06/30 02:42:58;;;;;;;0.00;0.00;;;13.70;84.80;;;;;;5031180;28;20049;-67
2023/06/30 02:45:24;;;;;;;0.00;0.00;;;13.70;84.80;;;;;;5027510;28;20116;-66
2023/06/30 02:47:49;;;;;;;0.00;0.00;;;13.70;84.80;;;;;;5025522;28;20686;-67
2023/06/30 02:50:15;;;;;;;0.00;0.00;;;13.70;84.90;;;;;;5026426;28;20125;-67
2023/06/30 02:52:41;;;;;;;0.00;0.00;;;13.70;84.90;;;;;;5030614;28;20049;-67
2023/06/30 02:55:07;;;;;;;0.00;0.00;;;13.70;84.90;;;;;;5027839;28;20041;-66
2023/06/30 02:57:32;;;;;;;0.00;0.00;;;13.70;84.90;;;;;;5029350;28;20615;-67
2023/06/30 02:59:58;;;;;;;0.00;0.00;;;13.70;84.90;;;;;;5030387;28;20103;-67
2023/06/30 03:02:23;;;;;;;0.00;0.00;;;13.70;85.00;;;;;;5018199;28;20049;-67
2023/06/30 03:04:49;;;;;;;0.00;0.00;;;13.70;85.00;;;;;;5028620;28;20049;-67
2023/06/30 03:07:16;;;;;;;0.00;0.00;;;13.70;85.00;;;;;;5010718;28;20049;-67
2023/06/30 03:09:42;;;;;;;0.00;0.00;;;13.70;85.00;;;;;;5027518;28;20045;-66
2023/06/30 03:12:08;;;;;;;0.00;0.00;;;13.70;85.00;;;;;;5030260;28;20103;-67
2023/06/30 03:14:33;;;;;;;0.00;0.00;;;13.80;85.00;;;;;;5024618;28;20088;-67
2023/06/30 03:16:59;;;;;;;0.00;0.00;;;13.80;85.00;;;;;;5026116;28;20511;-67
2023/06/30 03:19:25;;;;;;;0.00;0.00;;;13.80;85.10;;;;;;5026581;28;20052;-67
2023/06/30 03:21:50;;;;;;;0.00;0.00;;;13.70;85.10;;;;;;5015499;28;20060;-67
2023/06/30 03:24:16;;;;;;;0.00;0.00;;;13.80;85.10;;;;;;5010759;28;20129;-66
2023/06/30 03:26:41;;;;;;;0.00;0.00;;;13.70;85.10;;;;;;5012023;28;20140;-67
2023/06/30 03:29:07;;;;;;;0.00;0.00;;;13.70;85.10;;;;;;5026788;28;20120;-67
2023/06/30 03:31:32;;;;;;;0.00;0.00;;;13.70;85.10;;;;;;5028643;28;20076;-67
2023/06/30 03:33:58;;;;;;;0.00;0.00;;;13.70;85.10;;;;;;5023353;28;20107;-67
2023/06/30 03:36:24;;;;;;;0.00;0.00;;;13.70;85.10;;;;;;5019644;28;20461;-67
2023/06/30 03:38:50;;;;;;;0.00;0.00;;;13.70;85.10;;;;;;5030524;28;20049;-67
2023/06/30 03:41:15;;;;;;;0.00;0.00;;;13.80;85.10;;;;;;5029084;28;20049;-67
2023/06/30 03:43:41;;;;;;;0.03;0.03;;;13.80;85.10;;;;;;5030059;28;20073;-67
2023/06/30 03:46:09;;;;;;;0.00;0.00;;;13.80;85.10;;;;;;5025460;28;20033;-67
2023/06/30 03:48:35;;;;;;;0.00;0.00;;;13.80;85.10;;;;;;5027162;28;20053;-67
2023/06/30 03:51:00;;;;;;;0.00;0.00;;;13.80;85.10;;;;;;5028939;28;20095;-67
2023/06/30 03:53:26;;;;;;;0.00;0.00;;;13.80;85.10;;;;;;5030014;28;20049;-67
2023/06/30 03:55:51;;;;;;;0.00;0.00;;;13.90;85.20;;;;;;5021976;28;20056;-67
2023/06/30 03:58:18;;;;;;;0.00;0.00;;;13.90;85.20;;;;;;5028088;28;20049;-67
2023/06/30 04:00:44;;;;;;;0.00;0.00;;;13.90;85.20;;;;;;5025826;28;20058;-67
2023/06/30 04:03:09;;;;;;;0.00;0.00;;;13.90;85.20;;;;;;5016808;28;20054;-66
2023/06/30 04:05:35;;;;;;;0.00;0.00;;;13.90;85.20;;;;;;5009933;28;20042;-67
2023/06/30 04:08:00;;;;;;;0.00;0.00;;;13.90;85.30;;;;;;5023430;28;20104;-67
2023/06/30 04:10:26;;;;;;;0.00;0.00;;;13.90;85.30;;;;;;5026748;28;20080;-67
2023/06/30 04:12:52;;;;;;;0.00;0.00;;;13.90;85.30;;;;;;5029269;28;20045;-67
2023/06/30 04:15:17;;;;;;;0.00;0.00;;;13.80;85.40;;;;;;5029373;28;20437;-67
2023/06/30 04:17:43;;;;;;;0.00;0.00;;;13.80;85.40;;;;;;5028816;28;20049;-67
2023/06/30 04:20:09;;;;;;;0.00;0.00;;;13.80;85.70;;;;;;5023953;28;20038;-67
2023/06/30 04:22:38;;;;;;;0.00;0.00;;;13.80;86.10;;;;;;5023035;28;20042;-66
2023/06/30 04:25:05;;;;;;;0.30;0.20;;;13.80;86.00;;;;;;5029285;28;20059;-67
2023/06/30 04:27:31;;;;;;;0.00;0.00;;;13.80;86.20;;;;;;5028867;28;20120;-67
2023/06/30 04:29:56;;;;;;;0.00;0.00;;;13.80;86.40;;;;;;5027154;28;20129;-67
2023/06/30 04:32:22;;;;;;;0.00;0.00;;;13.90;86.40;;;;;;5028640;28;20038;-67
2023/06/30 04:34:47;;;;;;;0.00;0.00;;;13.90;86.30;;;;;;5028573;28;20091;-67
2023/06/30 04:37:13;;;;;;;0.00;0.00;;;13.90;86.30;;;;;;5021819;28;20064;-67
2023/06/30 04:39:39;;;;;;;0.00;0.00;;;13.90;86.30;;;;;;5028483;28;20052;-67
2023/06/30 04:42:04;;;;;;;0.00;0.00;;;14.00;86.30;;;;;;5027502;28;20046;-66
2023/06/30 04:44:30;;;;;;;0.00;0.00;;;14.00;86.30;;;;;;5029079;28;20045;-67
2023/06/30 04:46:56;;;;;;;0.00;0.00;;;14.10;86.40;;;;;;5028778;28;20045;-67
2023/06/30 04:49:22;;;;;;;0.00;0.00;;;14.10;86.50;;;;;;5028216;28;20064;-67
2023/06/30 04:51:47;;;;;;;0.00;0.00;;;14.10;86.50;;;;;;5028919;28;20490;-67
2023/06/30 04:54:13;;;;;;;0.00;0.00;;;14.20;86.50;;;;;;5028716;28;20635;-67
2023/06/30 04:56:38;;;;;;;0.00;0.00;;;14.20;86.60;;;;;;5028487;28;20137;-67
2023/06/30 04:59:04;;;;;;;0.00;0.00;;;14.30;86.60;;;;;;5028142;28;20128;-68
2023/06/30 05:01:32;;;;;;;0.00;0.00;;;14.30;86.50;;;;;;5027442;28;20034;-67
2023/06/30 05:03:58;;;;;;;0.00;0.00;;;14.40;86.60;;;;;;5029110;28;20049;-67
2023/06/30 05:06:24;;;;;;;0.00;0.00;;;14.40;86.60;;;;;;5028823;28;20068;-67
2023/06/30 05:08:50;;;;;;;0.00;0.00;;;14.50;86.60;;;;;;5028641;28;20195;-68
2023/06/30 05:11:15;;;;;;;0.00;0.00;;;14.50;86.60;;;;;;5027488;28;20132;-67
2023/06/30 05:13:41;;;;;;;0.00;0.00;;;14.60;86.40;;;;;;5029069;28;20033;-68
2023/06/30 05:16:06;;;;;;;0.00;0.00;;;14.60;86.40;;;;;;5028261;28;20576;-67
2023/06/30 05:18:32;;;;;;;0.00;0.00;;;14.70;86.40;;;;;;5028118;28;20044;-67
2023/06/30 05:20:57;;;;;;;0.00;0.00;;;14.80;86.50;;;;;;5028787;28;20449;-67
2023/06/30 05:23:23;;;;;;;0.00;0.00;;;14.80;86.70;;;;;;5028713;28;20406;-67
2023/06/30 05:25:49;;;;;;;0.00;0.00;;;14.80;86.70;;;;;;5031256;28;20038;-67
2023/06/30 05:28:15;;;;;;;3.33;1.08;;;14.90;86.50;;;;;;5032749;28;20584;-67
2023/06/30 05:30:41;;;;;;;0.00;0.00;;;15.00;86.50;;;;;;5031492;28;20046;-67
2023/06/30 05:33:06;;;;;;;0.00;0.00;;;15.10;86.60;;;;;;5023720;28;20041;-67
2023/06/30 05:35:32;;;;;;;0.00;0.00;;;15.10;86.50;;;;;;5032348;28;20380;-68
2023/06/30 05:37:59;;;;;;;0.00;0.00;;;15.20;86.40;;;;;;5032544;28;20052;-67
2023/06/30 05:40:25;;;;;;;0.00;0.00;;;15.20;86.20;;;;;;5031682;28;20049;-67
2023/06/30 05:42:51;;;;;;;0.03;0.03;;;15.30;86.10;;;;;;5031865;28;20068;-67
2023/06/30 05:45:16;;;;;;;0.00;0.00;;;15.30;86.00;;;;;;5032539;28;20045;-67
2023/06/30 05:47:42;;;;;;;0.00;0.00;;;15.40;85.90;;;;;;5032993;28;20128;-66
2023/06/30 05:50:08;;;;;;;0.00;0.00;;;15.50;85.70;;;;;;5031746;28;20044;-67
2023/06/30 05:52:33;;;;;;;0.00;0.00;;;15.50;85.40;;;;;;5025950;28;20446;-66
2023/06/30 05:54:59;;;;;;;0.00;0.00;;;15.60;85.40;;;;;;5031730;28;20057;-67
2023/06/30 05:57:26;;;;;;;0.00;0.00;;;15.60;85.30;;;;;;5031989;28;20043;-67
2023/06/30 05:59:52;;;;;;;0.00;0.00;;;15.70;85.30;;;;;;5030041;28;20518;-66
2023/06/30 06:02:18;;;;;;;0.00;0.00;;;15.80;85.60;;;;;;5030993;28;20033;-67
2023/06/30 06:04:43;;;;;;;0.00;0.00;;;15.90;85.30;;;;;;5030138;28;20049;-67
2023/06/30 06:07:09;;;;;;;0.55;0.55;;;16.00;84.90;;;;;;5031632;28;20054;-68
2023/06/30 06:09:35;;;;;;;0.00;0.00;;;16.00;84.10;;;;;;5031330;28;20041;-67
2023/06/30 06:12:02;;;;;;;0.00;0.00;;;16.00;84.00;;;;;;5030245;28;20069;-67
2023/06/30 06:14:27;;;;;;;0.10;0.10;;;16.00;83.60;;;;;;5031931;28;20049;-67
2023/06/30 06:16:53;;;;;;;0.00;0.00;;;16.10;83.40;;;;;;5028672;28;20128;-67
2023/06/30 06:19:20;;;;;;;0.00;0.00;;;16.10;83.30;;;;;;5025449;28;20064;-68
2023/06/30 06:21:46;;;;;;;0.00;0.00;;;16.10;83.50;;;;;;5026602;28;20111;-68
2023/06/30 06:24:12;;;;;;;0.00;0.00;;;16.10;83.30;;;;;;5021731;28;20499;-67
2023/06/30 06:26:38;;;;;;;0.00;0.00;;;16.20;83.20;;;;;;5027231;28;20054;-68
2023/06/30 06:29:04;;;;;;;0.00;0.00;;;16.30;83.20;;;;;;5018327;28;20414;-68
2023/06/30 06:31:29;;;;;;;0.10;0.10;;;16.40;83.30;;;;;;5026863;28;20057;-69
2023/06/30 06:33:55;;;;;;;0.00;0.00;;;16.50;83.10;;;;;;5017423;28;20036;-69
2023/06/30 06:36:21;;;;;;;0.00;0.00;;;16.50;82.50;;;;;;5023550;28;20057;-67
2023/06/30 06:38:47;;;;;;;0.00;0.00;;;16.50;81.90;;;;;;5029790;28;20045;-67
2023/06/30 06:41:12;;;;;;;1.27;1.10;;;16.50;81.80;;;;;;5028208;28;20085;-67
2023/06/30 06:43:38;;;;;;;0.00;0.00;;;16.50;81.50;;;;;;5024246;28;20042;-66
2023/06/30 06:46:04;;;;;;;0.00;0.00;;;16.60;82.10;;;;;;5029306;28;20046;-68
2023/06/30 06:48:29;;;;;;;0.00;0.00;;;16.60;82.20;;;;;;5022604;28;20379;-66
2023/06/30 06:51:01;;;;;;;0.00;0.00;;;16.60;80.60;;;;;;5026506;28;20061;-72
2023/06/30 06:53:35;;;;;;;0.28;0.28;;;16.70;80.80;;;;;;5024608;28;20037;-68
2023/06/30 06:56:03;;;;;;;0.00;0.00;;;16.70;79.20;;;;;;5025896;28;20952;-68
2023/06/30 06:58:30;;;;;;;0.00;0.00;;;16.60;79.40;;;;;;5026593;28;20046;-67
2023/06/30 07:00:56;;;;;;;0.00;0.00;;;16.70;79.60;;;;;;5026403;28;20120;-67
2023/06/30 07:03:22;;;;;;;0.00;0.00;;;16.60;79.70;;;;;;5026443;28;20049;-68
2023/06/30 07:05:49;;;;;;;0.00;0.00;;;16.60;79.80;;;;;;5026095;28;20123;-67
2023/06/30 07:08:16;;;;;;;0.00;0.00;;;16.60;79.20;;;;;;5026529;28;20064;-66
2023/06/30 07:10:44;;;;;;;0.08;0.08;;;16.60;78.90;;;;;;5027133;28;20053;-66
2023/06/30 07:13:09;;;;;;;1.45;1.17;;;16.60;78.70;;;;;;5027086;28;20124;-67
2023/06/30 07:15:35;;;;;;;0.10;0.10;;;16.50;78.30;;;;;;5027377;28;20137;-67
2023/06/30 07:18:01;;;;;;;0.00;0.00;;;16.60;78.00;;;;;;5027849;28;20057;-67
2023/06/30 07:20:27;;;;;;;0.00;0.00;;;16.60;77.60;;;;;;5026243;28;20046;-66
2023/06/30 07:22:56;;;;;;;0.38;0.38;;;16.70;77.60;;;;;;5025101;28;20049;-66
2023/06/30 07:25:22;;;;;;;0.55;0.30;;;16.80;76.60;;;;;;5026301;28;20053;-65
2023/06/30 07:27:52;;;;;;;0.00;0.00;;;17.00;77.00;;;;;;5025747;28;20037;-67
2023/06/30 07:30:20;;;;;;;2.00;1.23;;;17.10;76.00;;;;;;5027257;28;20111;-67
2023/06/30 07:32:46;;;;;;;0.00;0.00;;;17.10;73.50;;;;;;5028068;28;20049;-67
2023/06/30 07:35:11;;;;;;;0.00;0.00;;;17.10;75.30;;;;;;5025693;28;20060;-66
2023/06/30 07:37:38;;;;;;;0.00;0.00;;;17.20;75.20;;;;;;5026567;28;20049;-67
2023/06/30 07:40:04;;;;;;;0.00;0.00;;;17.30;72.50;;;;;;5027032;28;20119;-67
2023/06/30 07:42:30;;;;;;;0.00;0.00;;;17.30;70.30;;;;;;5026900;28;20045;-66
2023/06/30 07:44:55;;;;;;;0.00;0.00;;;17.40;70.80;;;;;;5026433;28;20566;-67
2023/06/30 07:47:21;;;;;;;0.00;0.00;;;17.40;70.80;;;;;;5026137;28;20366;-66
2023/06/30 07:49:46;;;;;;;0.00;0.00;;;17.40;69.10;;;;;;5027929;28;20409;-67
2023/06/30 07:52:12;;;;;;;0.00;0.00;;;17.50;68.10;;;;;;5024564;28;20132;-67
2023/06/30 07:54:37;;;;;;;4.95;1.08;;;17.60;69.40;;;;;;5025393;28;20099;-68
2023/06/30 07:57:03;;;;;;;0.03;0.03;;;17.80;69.70;;;;;;5027193;28;20518;-68
2023/06/30 07:59:29;;;;;;;0.47;0.47;;;17.80;69.90;;;;;;5026791;28;20039;-68
2023/06/30 08:01:55;;;;;;;0.10;0.10;;;17.70;70.10;;;;;;5027856;28;20351;-68
2023/06/30 08:04:21;;;;;;;0.00;0.00;;;17.60;71.10;;;;;;5026236;28;20079;-69
2023/06/30 08:06:47;;;;;;;0.00;0.00;;;17.60;70.90;;;;;;5024881;28;20417;-68
2023/06/30 08:09:13;;;;;;;0.00;0.00;;;17.60;71.00;;;;;;5027468;28;20120;-68
2023/06/30 08:11:39;;;;;;;0.00;0.00;;;17.60;70.10;;;;;;5027609;28;20084;-68
2023/06/30 08:14:06;;;;;;;0.00;0.00;;;17.70;70.50;;;;;;5026720;28;20081;-68
2023/06/30 08:16:32;;;;;;;0.00;0.00;;;17.70;67.90;;;;;;5025082;28;20045;-68
2023/06/30 08:18:58;;;;;;;0.00;0.00;;;17.60;68.40;;;;;;5025332;28;20053;-68
2023/06/30 08:21:24;;;;;;;0.00;0.00;;;17.60;68.20;;;;;;5025638;28;20056;-68
2023/06/30 08:23:49;;;;;;;0.10;0.10;;;17.80;68.40;;;;;;5024818;28;20053;-68
2023/06/30 08:26:15;;;;;;;0.00;0.00;;;17.80;66.30;;;;;;5026633;28;20041;-68
2023/06/30 08:28:40;;;;;;;0.00;0.00;;;17.90;65.40;;;;;;5025042;28;20045;-68
2023/06/30 08:31:06;;;;;;;0.00;0.00;;;18.00;64.80;;;;;;5026905;28;20053;-68
2023/06/30 08:33:31;;;;;;;0.00;0.00;;;18.00;64.20;;;;;;5024548;28;20046;-68
2023/06/30 08:35:57;;;;;;;0.00;0.00;;;18.10;63.90;;;;;;5025885;28;20033;-68
2023/06/30 08:38:22;;;;;;;0.00;0.00;;;18.10;63.90;;;;;;5025561;28;20159;-68
2023/06/30 08:40:48;;;;;;;0.00;0.00;;;18.20;63.30;;;;;;5027101;28;20505;-68
2023/06/30 08:43:15;;;;;;;0.00;0.00;;;18.20;63.50;;;;;;5026910;28;20200;-68
2023/06/30 08:45:43;;;;;;;0.00;0.00;;;18.20;63.40;;;;;;5026479;28;20069;-69
2023/06/30 08:48:11;;;;;;;0.00;0.00;;;18.30;65.00;;;;;;5025561;28;20034;-68
2023/06/30 08:50:38;;;;;;;0.00;0.00;;;18.40;63.00;;;;;;5027654;28;20049;-69
2023/06/30 08:53:04;;;;;;;0.60;0.55;;;18.50;62.80;;;;;;5027770;28;20554;-68
2023/06/30 08:55:30;;;;;;;0.00;0.00;;;18.50;63.90;;;;;;5028793;28;20037;-68
2023/06/30 08:57:57;;;;;;;0.00;0.00;;;18.50;64.20;;;;;;5027149;28;20513;-69
2023/06/30 09:00:26;;;;;;;0.10;0.10;;;18.60;65.00;;;;;;5034399;28;20826;-69
2023/06/30 09:02:53;;;;;;;0.00;0.00;;;18.60;64.00;;;;;;5035375;28;20049;-68
2023/06/30 09:05:22;;;;;;;0.00;0.00;;;18.70;63.20;;;;;;5035267;28;20079;-69
2023/06/30 09:07:55;;;;;;;0.00;0.00;;;18.80;64.20;;;;;;5035487;28;20071;-68
2023/06/30 09:10:27;;;;;;;0.00;0.00;;;19.00;65.10;;;;;;5033373;28;20055;-69
2023/06/30 09:12:57;;;;;;;0.00;0.00;;;19.10;64.40;;;;;;5031049;28;20052;-68
2023/06/30 09:15:24;;;;;;;0.00;0.00;;;19.10;64.90;;;;;;5032495;28;20037;-68
2023/06/30 09:17:52;;;;;;;0.00;0.00;;;19.20;65.80;;;;;;5022977;28;20140;-69
2023/06/30 09:20:20;;;;;;;0.00;0.00;;;19.00;63.10;;;;;;5036036;28;20414;-68
2023/06/30 09:22:46;;;;;;;0.10;0.10;;;19.00;65.20;;;;;;5033459;28;20064;-68
2023/06/30 09:25:35;;;;;;;0.00;0.00;;;18.90;65.40;;;;;;5034440;28;20034;-68
2023/06/30 09:28:10;;;;;;;0.00;0.00;;;18.90;65.40;;;;;;5017272;28;20045;-68
2023/06/30 09:30:40;;;;;;;0.00;0.00;;;19.00;66.20;;;;;;5031716;28;20565;-67
2023/06/30 09:33:07;;;;;;;0.00;0.00;;;19.00;63.30;;;;;;5034443;28;20498;-67
2023/06/30 09:35:44;;;;;;;0.00;0.00;;;19.10;63.10;;;;;;5027265;28;20049;-66
2023/06/30 09:38:14;;;;;;;0.00;0.00;;;19.00;62.00;;;;;;5032943;28;20053;-68
2023/06/30 09:40:47;;;;;;;0.00;0.00;;;19.10;64.30;;;;;;5030352;28;20041;-67
2023/06/30 09:43:20;;;;;;;0.00;0.00;;;19.20;63.60;;;;;;5030428;28;20414;-66
2023/06/30 09:45:53;;;;;;;0.00;0.00;;;19.30;63.20;;;;;;5028795;28;20406;-67
2023/06/30 09:48:19;;;;;;;0.00;0.00;;;19.40;61.60;;;;;;5033835;28;20045;-68
2023/06/30 09:50:44;;;;;;;0.00;0.00;;;19.50;61.10;;;;;;5032171;28;20052;-68
2023/06/30 09:53:10;;;;;;;0.00;0.00;;;19.50;61.40;;;;;;5031613;28;20068;-68
2023/06/30 09:55:49;;;;;;;0.15;0.15;;;19.50;60.70;;;;;;5033292;28;20049;-68
2023/06/30 09:58:17;;;;;;;0.00;0.00;;;19.40;61.70;;;;;;5027716;28;20092;-68
2023/06/30 10:00:43;;;;;;;0.17;0.17;;;19.50;61.30;;;;;;5031497;28;20482;-68
2023/06/30 10:03:09;;;;;;;0.00;0.00;;;19.40;61.10;;;;;;5032633;28;20669;-68
2023/06/30 10:05:37;;;;;;;0.00;0.00;;;19.40;60.90;;;;;;5028317;28;20041;-67
2023/06/30 10:08:03;;;;;;;0.40;0.40;;;19.50;60.70;;;;;;5031015;28;20758;-69
2023/06/30 10:10:30;;;;;;;0.00;0.00;;;19.50;59.30;;;;;;5028053;28;20066;-68
2023/06/30 10:12:58;;;;;;;0.00;0.00;;;19.40;59.50;;;;;;5026816;28;20105;-68
2023/06/30 10:15:24;;;;;;;0.00;0.00;;;19.30;58.60;;;;;;5028517;28;20049;-68
2023/06/30 10:17:51;;;;;;;0.10;0.10;;;19.20;58.70;;;;;;5028013;28;20493;-68
2023/06/30 10:20:18;;;;;;;0.15;0.15;;;19.30;59.10;;;;;;5027897;28;20051;-67
2023/06/30 10:22:44;;;;;;;0.00;0.00;;;19.50;57.70;;;;;;5028836;28;20042;-67
2023/06/30 10:25:13;;;;;;;1.15;1.08;;;19.60;59.70;;;;;;5029458;28;20404;-68
2023/06/30 10:27:39;;;;;;;0.00;0.00;;;19.70;59.60;;;;;;5028745;28;20113;-68
2023/06/30 10:30:06;;;;;;;0.00;0.00;;;19.90;61.40;;;;;;5027477;28;20049;-67
2023/06/30 10:32:32;;;;;;;0.00;0.00;;;20.00;59.60;;;;;;5026766;28;20468;-67
2023/06/30 10:34:59;;;;;;;0.00;0.00;;;20.00;59.70;;;;;;5028652;28;20120;-67
2023/06/30 10:37:25;;;;;;;0.10;0.10;;;20.10;59.70;;;;;;5028116;28;20052;-68
2023/06/30 10:39:51;;;;;;;0.00;0.00;;;20.10;58.20;;;;;;5028092;28;20033;-67
2023/06/30 10:42:18;;;;;;;0.00;0.00;;;20.30;57.20;;;;;;5026110;28;20045;-67
2023/06/30 10:44:45;;;;;;;0.10;0.10;;;20.30;55.50;;;;;;5029681;28;20512;-67
2023/06/30 10:47:11;;;;;;;0.10;0.10;;;20.40;56.80;;;;;;5028776;28;20510;-67
2023/06/30 10:49:46;;;;;;;0.00;0.00;;;20.20;57.40;;;;;;5026600;28;20124;-67
2023/06/30 10:52:25;;;;;;;0.00;0.00;;;20.20;59.90;;;;;;5029155;28;20049;-67
2023/06/30 10:54:50;;;;;;;0.00;0.00;;;20.30;60.70;;;;;;5028259;28;20050;-67
2023/06/30 10:57:28;;;;;;;0.00;0.00;;;20.30;55.70;;;;;;5028461;28;20041;-67
2023/06/30 11:00:10;;;;;;;0.00;0.00;;;20.30;56.20;;;;;;5029148;28;20037;-67
2023/06/30 11:02:37;;;;;;;0.00;0.00;;;20.30;56.60;;;;;;5027022;28;20060;-67
2023/06/30 11:05:27;;;;;;;0.00;0.00;;;20.30;57.50;;;;;;5025967;28;20045;-67
2023/06/30 11:08:06;;;;;;;0.00;0.00;;;20.50;57.10;;;;;;5028161;28;20056;-68
2023/06/30 11:10:32;;;;;;;0.00;0.00;;;20.50;57.00;;;;;;5027409;28;20107;-67
2023/06/30 11:12:58;;;;;;;0.73;0.73;;;20.60;58.00;;;;;;5024657;28;20038;-67
2023/06/30 11:15:35;;;;;;;2.47;1.00;;;20.50;55.10;;;;;;5027951;28;20048;-68
2023/06/30 11:18:02;;;;;;;0.00;0.00;;;20.50;56.20;;;;;;5027054;28;20917;-67
2023/06/30 11:20:32;;;;;;;0.10;0.10;;;20.50;57.50;;;;;;5026669;28;20037;-67
2023/06/30 11:23:02;;;;;;;0.00;0.00;;;20.70;57.50;;;;;;5025086;28;20041;-67
2023/06/30 11:25:29;;;;;;;0.00;0.00;;;20.90;59.20;;;;;;5026650;28;20095;-69
2023/06/30 11:27:56;;;;;;;0.00;0.00;;;20.90;57.70;;;;;;5027041;28;20037;-67
2023/06/30 11:30:22;;;;;;;0.00;0.00;;;20.90;58.20;;;;;;5026263;28;20052;-66
2023/06/30 11:32:48;;;;;;;0.00;0.00;;;20.90;57.60;;;;;;5028345;28;20433;-65
2023/06/30 11:35:17;;;;;;;0.80;0.68;;;20.80;56.30;;;;;;5027155;28;20030;-67
2023/06/30 11:37:50;;;;;;;0.00;0.00;;;20.60;56.00;;;;;;5027208;28;20033;-67
2023/06/30 11:40:16;;;;;;;0.00;0.00;;;20.60;56.90;;;;;;5027200;28;20038;-67
2023/06/30 11:42:42;;;;;;;0.00;0.00;;;20.70;53.80;;;;;;5027303;28;20033;-68
2023/06/30 11:45:08;;;;;;;0.00;0.00;;;20.80;54.80;;;;;;5026795;28;20132;-69
2023/06/30 11:47:35;;;;;;;0.00;0.00;;;20.80;53.80;;;;;;5026587;28;20037;-67
2023/06/30 11:50:07;;;;;;;0.00;0.00;;;20.70;54.30;;;;;;5025094;28;20046;-69
2023/06/30 11:52:34;;;;;;;0.00;0.00;;;20.60;55.90;;;;;;5026257;28;20044;-68
2023/06/30 11:55:03;;;;;;;0.00;0.00;;;20.70;56.60;;;;;;5026054;28;21455;-68
2023/06/30 11:57:36;;;;;;;0.00;0.00;;;20.90;56.20;;;;;;5027544;28;20067;-69
2023/06/30 12:00:11;;;;;;;0.10;0.10;;;21.00;54.10;;;;;;5027592;28;20619;-69
2023/06/30 12:02:36;;;;;;;0.00;0.00;;;21.10;54.20;;;;;;5026607;28;20033;-69
2023/06/30 12:05:10;;;;;;;0.00;0.00;;;21.20;54.20;;;;;;5025134;28;20176;-69
2023/06/30 12:07:35;;;;;;;0.00;0.00;;;21.10;54.50;;;;;;5027303;28;20053;-69
2023/06/30 12:10:02;;;;;;;0.00;0.00;;;21.10;54.80;;;;;;5025881;28;20406;-68
2023/06/30 12:12:28;;;;;;;0.00;0.00;;;21.10;53.30;;;;;;5008586;28;20048;-69
2023/06/30 12:14:56;;;;;;;0.10;0.10;;;21.20;52.60;;;;;;5026871;28;20045;-67
2023/06/30 12:17:26;;;;;;;0.00;0.00;;;21.20;53.50;;;;;;5025963;28;20045;-66
2023/06/30 12:19:51;;;;;;;0.20;0.20;;;21.30;54.00;;;;;;5027385;28;20154;-67
2023/06/30 12:22:25;;;;;;;0.00;0.00;;;21.50;53.60;;;;;;5017598;28;20604;-66
2023/06/30 12:24:54;;;;;;;0.00;0.00;;;21.60;55.20;;;;;;5026033;28;20128;-66
2023/06/30 12:27:20;;;;;;;0.00;0.00;;;21.60;53.10;;;;;;5024807;28;20045;-66
2023/06/30 12:29:46;;;;;;;0.00;0.00;;;21.60;54.00;;;;;;5022656;28;20041;-66
2023/06/30 12:32:15;;;;;;;0.10;0.10;;;21.80;52.40;;;;;;5023688;28;20034;-66
2023/06/30 12:34:41;;;;;;;0.00;0.00;;;21.80;52.30;;;;;;5024298;28;20040;-68
2023/06/30 12:37:06;;;;;;;0.80;0.80;;;21.90;52.70;;;;;;5020881;28;20054;-67
2023/06/30 12:39:32;;;;;;;0.00;0.00;;;21.80;52.50;;;;;;5023856;28;20053;-67
2023/06/30 12:41:58;;;;;;;0.00;0.00;;;21.60;51.10;;;;;;5024849;28;20042;-71
2023/06/30 12:44:23;;;;;;;0.00;0.00;;;21.50;52.00;;;;;;5023645;28;20132;-70
2023/06/30 12:47:05;;;;;;;0.00;0.00;;;21.40;52.40;;;;;;5023967;28;20041;-71